METAR Data
IDs: Format: Raw Decoded Include TAF

Data at: 1602 UTC 18 Aug 2019

PAWD 181553Z AUTO 01010KT 1 1/2SM HZ OVC034 13/03 A3001 RMK AO2 SLP162 T01330028 TSNO $
PAWD 181453Z AUTO 36014G22KT 1 1/2SM HZ OVC038 14/02 A3002 RMK AO2 SLP167 T01390022 56007 TSNO $
PAWD 181433Z AUTO 01010KT 1 1/2SM HZ OVC037 14/03 A3003 RMK AO2 T01390028 TSNO $
PAWD 181353Z AUTO 33011G18KT 2SM HZ OVC038 15/02 A3003 RMK AO2 SLP170 T01500022 TSNO $
PAWD 181253Z AUTO 36010KT 320V030 2 1/2SM HZ OVC038 15/03 A3003 RMK AO2 SLP170 T01500028 TSNO $
PAWD 181153Z AUTO 01011KT 2SM HZ OVC035 16/04 A3004 RMK AO2 SLP173 7//// T01560039 10206 20156 55001 TSNO $
PAWD 181053Z AUTO 35010KT 2SM HZ OVC035 16/03 A3004 RMK AO2 SLP173 T01610033 TSNO $
PAWD 181050Z AUTO 35009KT 2SM HZ OVC034 16/04 A3004 RMK AO2 TSNO $
PAWD 181040Z AUTO 36012KT 1 3/4SM HZ OVC034 17/03 A3004 RMK AO2 T01670033 TSNO $
PAWD 181014Z AUTO 01008G15KT 2SM HZ OVC030 17/03 A3004 RMK AO2 T01720028 TSNO $
PAWD 181007Z AUTO 36010KT 2SM HZ OVC028 17/03 A3004 RMK AO2 T01670033 TSNO $
PAWD 180953Z AUTO 36009KT 1 3/4SM HZ OVC027 17/03 A3004 RMK AO2 SLP174 T01670033 TSNO $
PAWD 180934Z AUTO 01007KT 1 3/4SM HZ OVC028 17/03 A3005 RMK AO2 T01720033 TSNO $
PAWD 180921Z AUTO 02008G15KT 1 3/4SM HZ OVC030 17/03 A3005 RMK AO2 T01720033 TSNO $
PAWD 180853Z AUTO VRB06KT 1 1/2SM HZ OVC028 17/03 A3005 RMK AO2 SLP177 T01720033 402330167 51001 TSNO $
PAWD 180804Z AUTO 02006KT 1 3/4SM HZ OVC028 18/03 A3005 RMK AO2 T01780033 TSNO $
PAWD 180753Z AUTO 02008KT 1 3/4SM HZ OVC030 18/03 A3005 RMK AO2 SLP176 T01780033 TSNO $
PAWD 180702Z AUTO 01008KT 1 1/2SM HZ OVC030 19/03 A3006 RMK AO2 T01890028 TSNO $
PAWD 180653Z AUTO 01008KT 1 1/2SM HZ OVC026 19/03 A3006 RMK AO2 SLP178 T01890033 TSNO $
PAWD 180613Z AUTO VRB06G18KT 1 1/4SM HZ OVC023 20/03 A3005 RMK AO2 T02000028 TSNO $
PAWD 180553Z AUTO VRB06G17KT 3/4SM HZ VV020 21/02 A3005 RMK AO2 SLP176 T02060022 10233 20206 56003 TSNO $
PAWD 180453Z AUTO 33011G19KT 3/4SM HZ VV020 21/02 A3005 RMK AO2 SLP176 T02110022 TSNO $
PAWD 180353Z AUTO 32009G23KT 3/4SM HZ VV019 22/02 A3005 RMK AO2 SLP176 T02170022 TSNO $
PAWD 180322Z AUTO 32012G18KT 3/4SM HZ OVC022 22/02 A3006 RMK AO2 T02170022 TSNO $
PAWD 180253Z AUTO 31011G17KT 1SM HZ OVC024 22/03 A3006 RMK AO2 SLP179 T02220028 55004 TSNO $
PAWD 180246Z AUTO 32011G19KT 1SM HZ OVC024 22/02 A3006 RMK AO2 T02220022 TSNO $
PAWD 180210Z AUTO 33010G18KT 1 3/4SM HZ OVC026 23/03 A3006 RMK AO2 T02280028 TSNO $
PAWD 180153Z AUTO 32015G19KT 2SM HZ OVC024 23/03 A3006 RMK AO2 SLP178 T02280028 TSNO $
PAWD 180053Z AUTO 31012G25KT 280V340 2 1/2SM HZ OVC024 23/02 A3006 RMK AO2 SLP180 T02280022 TSNO $
PAWD 180000Z AUTO 31012G26KT 2 1/2SM HZ OVC026 23/03 A3007 RMK AO2 T02280028 TSNO $
PAWD 172353Z AUTO 29017G26KT 3SM HZ OVC028 23/02 A3007 RMK AO2 PK WND 31028/2255 SLP184 T02280022 10228 20183 58002 TSNO $
PAWD 172253Z AUTO 32016G26KT 2SM HZ OVC024 22/03 A3007 RMK AO2 PK WND 30031/2217 SLP184 T02220028 TSNO $
PAWD 172153Z AUTO 31018G30KT 2SM HZ BKN024 OVC033 21/02 A3008 RMK AO2 PK WND 34033/2110 SLP187 T02110017 TSNO $
PAWD 172053Z AUTO 32021G34KT 2SM HZ OVC023 20/02 A3008 RMK AO2 PK WND 32035/2009 SLP185 T02000017 51011 TSNO $
PAWD 172024Z AUTO 32019G34KT 2SM HZ BKN025 19/02 A3008 RMK AO2 PK WND 32035/2009 T01940022 TSNO $
PAWD 172012Z AUTO 33023G35KT 2 1/2SM HZ BKN027 19/02 A3007 RMK AO2 PK WND 32035/2009 T01940017 TSNO $
PAWD 171956Z AUTO 31021G37KT 3SM HZ SCT027 19/02 A3007 RMK AO2 PK WND 31032/1954 T01940022 TSNO $
PAWD 171953Z AUTO 31025G37KT 3SM HZ BKN025 19/02 A3007 RMK AO2 PK WND 31038/1915 SLP183 T01940022 TSNO $
PAWD 171945Z AUTO 31020G35KT 3SM HZ BKN025 19/02 A3007 RMK AO2 PK WND 31038/1915 T01940022 TSNO $
PAWD 171853Z AUTO 29016G31KT 5SM HZ CLR 19/02 A3006 RMK AO2 PK WND 31033/1833 SLP180 T01890017 TSNO $
PAWD 171753Z AUTO 32015G34KT 6SM HZ CLR 19/01 A3005 RMK AO2 PK WND 34036/1712 SLP175 6//// T01890011 10211 20172 53018 TSNO $
PAWD 171653Z AUTO 32017G26KT 6SM HZ CLR 19/01 A3000 RMK AO2 PK WND 32031/1557 SLP159 T01890011 TSNO $
PAWD 171553Z AUTO 32018G30KT 6SM HZ CLR 18/04 A3001 RMK AO2 PK WND 32030/1547 SLP161 T01780039 TSNO $
PAWD 171453Z AUTO 35010G17KT 320V030 5SM HZ SCT041 18/04 A2999 RMK AO2 PK WND 31037/1417 SLP156 6//// T01780044 TSNO $
PAWD 171353Z AUTO 32020G34KT 5SM HZ BKN038 19/01 A2998 RMK AO2 PK WND 32036/1336 SLP153 T01890011 TSNO $
PAWD 171253Z AUTO 35011G23KT 10SM 21/02 A2998 RMK AO2 SLP151 T02060022 TSNO $
PAWD 171053Z AUTO 32019G30KT 10SM CLR 21/08 A2996 RMK AO2 PK WND 33033/1043 SLP144 T02110083 TSNO
PAWD 170953Z AUTO 30009G21KT 10SM CLR 22/07 A2996 RMK AO2 SLP144 T02170072 TSNO
PAWD 170853Z AUTO 33012G19KT 300V360 10SM CLR 23/06 A2997 RMK AO2 SLP149 T02330061 403000144 56014 TSNO
PAWD 170753Z AUTO 36004KT 10SM CLR 18/08 A2997 RMK AO2 SLP148 T01780083 TSNO
PAWD 170653Z AUTO 01006KT 10SM CLR 21/08 A2999 RMK AO2 SLP157 T02110083 TSNO
PAWD 170553Z AUTO 35006KT 10SM CLR 22/09 A3001 RMK AO2 SLP162 T02220089 10272 20167 56009 TSNO
PAWD 170453Z AUTO 00000KT 10SM CLR 17/14 A3001 RMK AO2 SLP164 T01720144 TSNO